createdAt,value
2022-09-26T00:04:47.546Z,12.49
2022-09-26T00:09:39.778Z,12.47
2022-09-26T00:14:31.661Z,12.43
2022-09-26T00:19:23.688Z,12.37
2022-09-26T00:24:15.832Z,12.32
2022-09-26T00:29:10.158Z,12.29
2022-09-26T00:34:02.764Z,12.28
2022-09-26T00:38:54.696Z,12.26
2022-09-26T00:43:49.747Z,12.24
2022-09-26T00:48:43.779Z,12.21
2022-09-26T00:53:42.801Z,12.23
2022-09-26T00:58:50.212Z,12.24
2022-09-26T01:03:44.255Z,12.22
2022-09-26T01:08:40.934Z,12.20
2022-09-26T01:13:35.747Z,12.22
2022-09-26T01:18:28.363Z,12.18
2022-09-26T01:24:03.307Z,12.13
2022-09-26T01:29:25.190Z,12.16
2022-09-26T01:34:17.482Z,12.18
2022-09-26T01:39:23.630Z,12.21
2022-09-26T01:44:30.242Z,12.20
2022-09-26T01:49:52.748Z,12.22
2022-09-26T01:54:53.051Z,12.23
2022-09-26T01:59:51.660Z,12.21
2022-09-26T02:04:46.228Z,12.20
2022-09-26T02:09:47.861Z,12.21
2022-09-26T02:14:42.827Z,12.18
2022-09-26T02:20:00.069Z,12.22
2022-09-26T02:24:53.510Z,12.27
2022-09-26T02:29:45.843Z,12.30
2022-09-26T02:34:37.518Z,12.38
2022-09-26T02:39:29.275Z,12.39
2022-09-26T02:44:33.010Z,12.41
2022-09-26T02:49:52.002Z,12.39
2022-09-26T02:55:17.152Z,12.39
2022-09-26T03:00:43.963Z,12.33
2022-09-26T03:05:41.453Z,12.23
2022-09-26T03:10:35.838Z,12.14
2022-09-26T03:15:29.838Z,12.07
2022-09-26T03:20:23.073Z,11.97
2022-09-26T03:25:18.741Z,11.92
2022-09-26T03:30:14.000Z,11.88
2022-09-26T03:35:05.804Z,11.85
2022-09-26T03:39:57.460Z,11.86
2022-09-26T03:44:49.069Z,11.83
2022-09-26T03:49:40.673Z,11.78
2022-09-26T03:54:32.212Z,11.72
2022-09-26T03:59:23.866Z,11.69
2022-09-26T04:04:16.526Z,11.65
2022-09-26T04:09:12.068Z,11.68
2022-09-26T04:14:09.828Z,11.69
2022-09-26T04:19:01.470Z,11.66
2022-09-26T04:23:53.707Z,11.59
2022-09-26T04:28:46.065Z,11.46
2022-09-26T04:33:39.916Z,11.33
2022-09-26T04:38:34.613Z,11.22
2022-09-26T04:43:26.356Z,11.15
2022-09-26T04:48:18.015Z,11.09
2022-09-26T04:53:10.032Z,11.01
2022-09-26T04:58:02.458Z,10.96
2022-09-26T05:02:54.139Z,10.92
2022-09-26T05:07:45.794Z,10.86
2022-09-26T05:12:42.032Z,10.80
2022-09-26T05:17:34.580Z,10.73
2022-09-26T05:22:30.402Z,10.68
2022-09-26T05:27:24.335Z,10.60
2022-09-26T05:32:19.179Z,10.57
2022-09-26T05:37:10.872Z,10.56
2022-09-26T05:42:05.896Z,10.56
2022-09-26T05:46:58.138Z,10.55
2022-09-26T05:51:50.133Z,10.55
2022-09-26T05:56:41.770Z,10.55
2022-09-26T06:01:34.405Z,10.55
2022-09-26T06:06:26.469Z,10.59
2022-09-26T06:11:28.056Z,10.64
2022-09-26T06:16:21.587Z,10.66
2022-09-26T06:21:15.698Z,10.64
2022-09-26T06:26:09.698Z,10.67
2022-09-26T06:31:01.687Z,10.70
2022-09-26T06:36:08.626Z,10.71
2022-09-26T06:41:00.403Z,10.71
2022-09-26T06:45:53.398Z,10.72
2022-09-26T06:50:45.165Z,10.73
2022-09-26T06:55:37.120Z,10.74
2022-09-26T07:00:33.862Z,10.79
2022-09-26T07:05:26.039Z,10.80
2022-09-26T07:10:19.687Z,10.83
2022-09-26T07:15:13.926Z,10.80
2022-09-26T07:20:07.982Z,10.81
2022-09-26T07:24:59.636Z,10.83
2022-09-26T07:29:51.262Z,10.83
2022-09-26T07:34:43.989Z,10.83
2022-09-26T07:39:35.565Z,10.85
2022-09-26T07:49:57.810Z,11.49
2022-09-26T07:54:49.586Z,12.18
2022-09-26T07:59:41.618Z,12.24
2022-09-26T08:04:33.286Z,12.09
2022-09-26T08:09:25.290Z,11.88
2022-09-26T08:14:16.991Z,11.70
2022-09-26T08:19:09.179Z,11.59
2022-09-26T08:24:02.247Z,11.56
2022-09-26T08:28:54.833Z,11.64
2022-09-26T08:33:47.799Z,11.77
2022-09-26T08:38:39.686Z,11.96
2022-09-26T08:43:56.502Z,12.27
2022-09-26T08:48:54.124Z,12.80
2022-09-26T08:53:52.643Z,12.86
2022-09-26T08:58:52.124Z,12.79
2022-09-26T09:04:01.412Z,12.60
2022-09-26T09:08:56.385Z,12.49
2022-09-26T09:14:20.138Z,12.46
2022-09-26T09:19:27.936Z,12.44
2022-09-26T09:24:41.613Z,12.52
2022-09-26T09:29:56.809Z,12.59
2022-09-26T09:34:53.673Z,12.71
2022-09-26T09:39:49.150Z,13.08
2022-09-26T09:44:47.545Z,13.35
2022-09-26T09:49:39.229Z,13.59
2022-09-26T09:54:43.317Z,13.79
2022-09-26T10:00:02.259Z,14.21
2022-09-26T10:05:04.124Z,14.21
2022-09-26T10:09:56.115Z,14.05
2022-09-26T10:14:55.088Z,13.84
2022-09-26T10:19:47.610Z,13.74
2022-09-26T10:24:43.326Z,13.66
2022-09-26T10:29:35.829Z,13.59
2022-09-26T10:34:32.566Z,13.53
2022-09-26T10:39:47.506Z,13.91
2022-09-26T10:44:39.541Z,14.66
2022-09-26T10:49:43.305Z,15.16
2022-09-26T10:54:42.299Z,15.48
2022-09-26T10:59:39.988Z,15.16
2022-09-26T11:04:52.671Z,14.90
2022-09-26T11:09:47.042Z,14.72
2022-09-26T11:14:45.890Z,14.55
2022-09-26T11:19:58.700Z,14.41
2022-09-26T11:25:08.012Z,14.27
2022-09-26T11:30:10.530Z,14.37
2022-09-26T11:35:03.160Z,14.60
2022-09-26T11:40:13.878Z,14.70
2022-09-26T11:45:44.023Z,14.66
2022-09-26T11:51:10.447Z,14.62
2022-09-26T11:56:11.238Z,14.53
2022-09-26T12:01:17.158Z,14.31
2022-09-26T12:06:44.101Z,14.01
2022-09-26T12:12:03.255Z,13.86
2022-09-26T12:16:55.128Z,14.00
2022-09-26T12:22:21.244Z,14.21
2022-09-26T12:27:25.656Z,14.10
2022-09-26T12:32:23.000Z,13.95
2022-09-26T12:37:37.539Z,14.19
2022-09-26T12:42:34.969Z,14.23
2022-09-26T12:47:57.573Z,14.31
2022-09-26T12:53:04.428Z,14.57
2022-09-26T12:58:00.633Z,14.68
2022-09-26T13:02:55.885Z,14.63
2022-09-26T13:08:13.925Z,14.49
2022-09-26T13:13:48.604Z,14.47
2022-09-26T13:18:50.692Z,14.30
2022-09-26T13:23:51.785Z,14.32
2022-09-26T13:29:15.756Z,14.57
2022-09-26T13:34:13.244Z,14.73
2022-09-26T13:39:23.522Z,14.58
2022-09-26T13:44:33.840Z,14.51
2022-09-26T13:49:50.004Z,14.60
2022-09-26T13:55:10.742Z,14.45
2022-09-26T14:00:31.288Z,14.37
2022-09-26T14:05:23.105Z,14.43
2022-09-26T14:10:34.887Z,14.65
2022-09-26T14:15:51.195Z,14.68
2022-09-26T14:21:12.626Z,14.67
2022-09-26T14:26:12.781Z,14.49
2022-09-26T14:31:18.728Z,14.22
2022-09-26T14:36:18.190Z,14.12
2022-09-26T14:41:18.504Z,14.20
2022-09-26T14:46:18.898Z,14.30
2022-09-26T14:51:11.166Z,14.32
2022-09-26T14:56:18.321Z,14.42
2022-09-26T15:01:18.936Z,14.52
2022-09-26T15:06:13.527Z,14.35
2022-09-26T15:11:06.893Z,14.04
2022-09-26T15:16:08.028Z,13.82
2022-09-26T15:21:10.211Z,13.61
2022-09-26T15:26:02.821Z,13.48
2022-09-26T15:31:27.003Z,13.40
2022-09-26T15:36:19.042Z,13.39
2022-09-26T15:41:16.437Z,13.39
2022-09-26T15:46:23.293Z,13.28
2022-09-26T15:51:25.647Z,13.22
2022-09-26T15:56:25.090Z,13.18
2022-09-26T16:01:19.680Z,13.17
2022-09-26T16:06:24.009Z,13.16
2022-09-26T16:11:15.893Z,13.11
2022-09-26T16:16:14.575Z,13.01
2022-09-26T16:21:16.972Z,12.95
2022-09-26T16:26:21.748Z,12.86
2022-09-26T16:31:19.652Z,12.86
2022-09-26T16:36:11.929Z,12.99
2022-09-26T16:46:43.548Z,12.47
2022-09-26T16:51:39.823Z,12.20
2022-09-26T16:56:34.114Z,12.07
2022-09-26T17:01:44.790Z,11.90
2022-09-26T17:06:37.383Z,11.70
2022-09-26T17:11:30.448Z,11.63
2022-09-26T17:16:22.395Z,11.65
2022-09-26T17:21:14.761Z,11.60
2022-09-26T17:26:07.074Z,11.51
2022-09-26T17:30:59.272Z,11.44
2022-09-26T17:35:51.035Z,11.36
2022-09-26T17:40:45.655Z,11.31
2022-09-26T17:45:45.217Z,11.26
2022-09-26T17:50:38.721Z,11.24
2022-09-26T17:55:31.321Z,11.23
2022-09-26T18:00:23.164Z,11.09
2022-09-26T18:05:36.760Z,11.04
2022-09-26T18:10:30.826Z,10.98
2022-09-26T18:15:22.695Z,10.98
2022-09-26T18:20:14.457Z,10.91
2022-09-26T18:25:11.825Z,10.90
2022-09-26T18:30:04.775Z,10.87
2022-09-26T18:34:56.498Z,10.86
2022-09-26T18:39:53.589Z,10.80
2022-09-26T18:44:46.497Z,10.73
2022-09-26T18:49:38.492Z,10.69
2022-09-26T18:54:31.878Z,10.62
2022-09-26T18:59:28.263Z,10.61
2022-09-26T19:04:22.937Z,10.58
2022-09-26T19:09:18.534Z,10.56
2022-09-26T19:14:16.117Z,10.55
2022-09-26T19:19:08.030Z,10.49
2022-09-26T19:24:22.752Z,10.46
2022-09-26T19:29:18.751Z,10.39
2022-09-26T19:34:15.480Z,10.34
2022-09-26T19:39:13.387Z,10.33
2022-09-26T19:44:05.701Z,10.30
2022-09-26T19:48:57.896Z,10.28
2022-09-26T19:53:49.625Z,10.29
2022-09-26T19:58:42.796Z,10.29
2022-09-26T20:03:39.998Z,10.25
2022-09-26T20:08:31.839Z,10.19
2022-09-26T20:13:23.709Z,10.19
2022-09-26T20:18:21.436Z,10.16
2022-09-26T20:23:21.123Z,10.10
2022-09-26T20:28:15.683Z,10.10
2022-09-26T20:33:08.955Z,10.10
2022-09-26T20:38:04.957Z,10.09
2022-09-26T20:43:03.778Z,10.07
2022-09-26T20:47:57.605Z,9.99
2022-09-26T20:52:49.696Z,9.94
2022-09-26T20:57:42.046Z,9.90
2022-09-26T21:02:39.224Z,9.83
2022-09-26T21:07:32.147Z,9.84
2022-09-26T21:12:24.737Z,9.86
2022-09-26T21:17:28.242Z,9.85
2022-09-26T21:22:25.513Z,9.84
2022-09-26T21:27:17.432Z,9.88
2022-09-26T21:32:16.967Z,9.83
2022-09-26T21:37:10.058Z,9.79
2022-09-26T21:42:04.398Z,9.75
2022-09-26T21:46:56.169Z,9.73
2022-09-26T21:51:51.411Z,9.67
2022-09-26T21:57:06.778Z,9.64
2022-09-26T22:01:58.493Z,9.57
2022-09-26T22:06:50.344Z,9.48
2022-09-26T22:11:42.025Z,9.44
2022-09-26T22:16:34.018Z,9.39
2022-09-26T22:21:26.153Z,9.34
2022-09-26T22:26:18.752Z,9.29
2022-09-26T22:31:11.480Z,9.24
2022-09-26T22:36:04.300Z,9.24
2022-09-26T22:41:00.449Z,9.18
2022-09-26T22:45:52.725Z,9.10
2022-09-26T22:50:45.445Z,9.01
2022-09-26T22:55:37.160Z,8.87
2022-09-26T23:00:28.825Z,8.82
2022-09-26T23:05:20.582Z,8.75
2022-09-26T23:10:13.340Z,8.76
2022-09-26T23:15:05.507Z,8.76
2022-09-26T23:19:57.146Z,8.74
2022-09-26T23:24:48.858Z,8.75
2022-09-26T23:29:41.390Z,8.77
2022-09-26T23:34:33.167Z,8.74
2022-09-26T23:39:24.811Z,8.74
2022-09-26T23:44:16.542Z,8.70
2022-09-26T23:49:08.272Z,8.65
2022-09-26T23:54:00.320Z,8.58
2022-09-26T23:58:52.041Z,8.53
